Time;durP1;ratioP1;P1;durP2;ratioP2;P2;SDS_P1;SDS_P2;PMS_P1;PMS_P2;Temp;Humidity;BMP_temperature;BMP_pressure;BME280_temperature;BME280_humidity;BME280_pressure;Samples;Min_cycle;Max_cycle;Signal;HPM_P1;HPM_P2
2021/01/10 00:00:22;;;;;;;16.02;5.55;;;;;;;;;;5079536;28;20044;-61
2021/01/10 00:02:50;;;;;;;14.32;5.45;;;;;;;;;;5067978;28;20060;-58
2021/01/10 00:05:19;;;;;;;12.73;5.25;;;;;;;;;;5078666;28;20066;-59
2021/01/10 00:07:44;;;;;;;;;;;;;;;;;;5051829;28;20067;-61
2021/01/10 00:10:11;;;;;;;9.65;4.20;;;;;;;;;;5050243;28;19949;-61
2021/01/10 00:12:39;;;;;;;15.98;5.10;;;;;;;;;;5072051;28;20053;-59
2021/01/10 00:15:09;;;;;;;14.23;5.32;;;;;;;;;;5063497;28;20231;-61
2021/01/10 00:17:43;;;;;;;14.48;5.45;;;;;;;;;;5055121;28;20131;-60
2021/01/10 00:20:10;;;;;;;16.33;5.67;;;;;;;;;;5064198;28;20190;-59
2021/01/10 00:22:36;;;;;;;15.98;5.43;;;;;;;;;;5068602;28;20040;-60
2021/01/10 00:25:04;;;;;;;15.30;5.68;;;;;;;;;;5046619;28;20108;-60
2021/01/10 00:27:30;;;;;;;13.32;5.80;;;;;;;;;;5060378;28;20057;-60
2021/01/10 00:29:56;;;;;;;15.45;5.85;;;;;;;;;;5052614;28;20073;-60
2021/01/10 00:32:23;;;;;;;15.43;5.70;;;;;;;;;;5059606;28;20045;-60
2021/01/10 00:34:49;;;;;;;14.80;5.90;;;;;;;;;;5054524;28;20044;-61
2021/01/10 00:37:18;;;;;;;18.65;5.38;;;;;;;;;;5063611;28;20043;-61
2021/01/10 00:39:44;;;;;;;14.63;4.78;;;;;;;;;;5062619;27;20033;-61
2021/01/10 00:42:11;;;;;;;10.95;4.65;;;;;;;;;;5068008;28;20029;-61
2021/01/10 00:44:37;;;;;;;13.25;4.80;;;;;;;;;;5056834;28;20048;-59
2021/01/10 00:47:03;;;;;;;11.95;4.82;;;;;;;;;;5078690;28;20044;-58
2021/01/10 00:49:30;;;;;;;11.95;4.93;;;;;;;;;;5082501;28;20029;-59
2021/01/10 00:51:57;;;;;;;14.60;5.50;;;;;;;;;;5043534;28;20156;-59
2021/01/10 00:54:22;;;;;;;13.20;4.95;;;;;;;;;;5043988;28;20056;-59
2021/01/10 00:56:48;;;;;;;12.20;4.45;;;;;;;;;;5055201;28;20037;-59
2021/01/10 00:59:14;;;;;;;19.42;6.35;;;;;;;;;;5045835;28;20173;-58
2021/01/10 01:01:41;;;;;;;15.73;6.68;;;;;;;;;;5054068;28;20103;-59
2021/01/10 01:04:07;;;;;;;17.70;5.28;;;;;;;;;;5063907;28;20094;-58
2021/01/10 01:06:34;;;;;;;17.42;6.18;;;;;;;;;;5060192;28;20036;-59
2021/01/10 01:09:00;;;;;;;20.05;6.05;;;;;;;;;;5062035;28;20069;-59
2021/01/10 01:11:26;;;;;;;15.07;5.40;;;;;;;;;;5060854;28;20029;-59
2021/01/10 01:13:52;;;;;;;12.68;4.95;;;;;;;;;;5063832;28;20048;-58
2021/01/10 01:16:18;;;;;;;11.73;4.93;;;;;;;;;;5059914;28;20044;-59
2021/01/10 01:18:44;;;;;;;16.88;5.57;;;;;;;;;;5064650;28;20068;-59
2021/01/10 01:21:14;;;;;;;12.35;4.80;;;;;;;;;;5059133;28;20069;-59
2021/01/10 01:23:41;;;;;;;18.42;5.97;;;;;;;;;;5060787;28;20053;-59
2021/01/10 01:26:07;;;;;;;14.20;5.38;;;;;;;;;;5058924;28;20062;-60
2021/01/10 01:28:33;;;;;;;16.17;5.32;;;;;;;;;;5065668;28;20052;-60
2021/01/10 01:30:59;;;;;;;10.95;4.00;;;;;;;;;;5063022;28;20041;-60
2021/01/10 01:33:26;;;;;;;10.15;3.92;;;;;;;;;;5058868;28;20104;-61
2021/01/10 01:35:52;;;;;;;11.15;4.15;;;;;;;;;;5062457;28;20029;-60
2021/01/10 01:38:18;;;;;;;11.05;4.40;;;;;;;;;;5057039;28;20041;-60
2021/01/10 01:40:44;;;;;;;13.77;4.40;;;;;;;;;;5079122;28;20055;-59
2021/01/10 01:43:10;;;;;;;14.60;5.03;;;;;;;;;;5054732;28;20161;-58
2021/01/10 01:45:36;;;;;;;11.75;4.68;;;;;;;;;;5058737;28;20049;-58
2021/01/10 01:48:04;;;;;;;15.68;4.80;;;;;;;;;;5049998;28;20041;-58
2021/01/10 01:50:30;;;;;;;17.52;4.55;;;;;;;;;;5060561;28;20048;-59
2021/01/10 01:52:56;;;;;;;13.35;4.55;;;;;;;;;;5051338;28;20049;-59
2021/01/10 01:55:22;;;;;;;17.50;4.70;;;;;;;;;;5043780;28;20152;-59
2021/01/10 01:57:49;;;;;;;14.77;4.65;;;;;;;;;;5063371;28;20033;-59
2021/01/10 02:00:15;;;;;;;14.43;4.18;;;;;;;;;;5064992;28;20048;-60
2021/01/10 02:02:43;;;;;;;10.70;4.47;;;;;;;;;;5061902;28;20141;-59
2021/01/10 02:05:11;;;;;;;11.80;4.22;;;;;;;;;;5063239;28;20056;-60
2021/01/10 02:07:40;;;;;;;13.83;4.90;;;;;;;;;;5060661;28;20037;-60
2021/01/10 02:10:07;;;;;;;13.43;4.78;;;;;;;;;;5059646;28;20297;-60
2021/01/10 02:12:35;;;;;;;12.95;4.53;;;;;;;;;;5059862;28;20122;-60
2021/01/10 02:15:08;;;;;;;13.23;4.05;;;;;;;;;;5058791;28;20100;-59
2021/01/10 02:17:34;;;;;;;10.52;4.28;;;;;;;;;;5060874;28;20097;-60
2021/01/10 02:20:04;;;;;;;15.48;4.45;;;;;;;;;;5059072;28;20055;-59
2021/01/10 02:22:32;;;;;;;13.32;4.53;;;;;;;;;;5061546;28;20044;-59
2021/01/10 02:24:59;;;;;;;11.65;4.80;;;;;;;;;;5058892;28;20045;-60
2021/01/10 02:27:25;;;;;;;11.52;4.38;;;;;;;;;;5062743;28;20041;-60
2021/01/10 02:29:51;;;;;;;11.30;4.90;;;;;;;;;;5059881;28;20037;-58
2021/01/10 02:32:19;;;;;;;10.65;4.65;;;;;;;;;;5064130;28;20045;-59
2021/01/10 02:34:46;;;;;;;14.05;4.28;;;;;;;;;;5076159;28;20056;-60
2021/01/10 02:37:21;;;;;;;11.68;4.43;;;;;;;;;;5045874;28;20440;-60
2021/01/10 02:39:50;;;;;;;14.05;4.63;;;;;;;;;;5059292;28;20029;-61
2021/01/10 02:42:26;;;;;;;10.18;4.25;;;;;;;;;;5063211;28;20030;-61
2021/01/10 02:44:55;;;;;;;10.77;4.38;;;;;;;;;;5059304;28;20089;-60
2021/01/10 02:47:21;;;;;;;10.55;4.60;;;;;;;;;;5063220;28;20037;-60
2021/01/10 02:49:47;;;;;;;13.10;4.05;;;;;;;;;;5060397;28;20041;-61
2021/01/10 02:52:13;;;;;;;14.73;4.38;;;;;;;;;;5078944;28;20061;-61
2021/01/10 02:54:40;;;;;;;11.32;3.88;;;;;;;;;;5059605;28;20076;-61
2021/01/10 02:57:08;;;;;;;11.85;4.38;;;;;;;;;;5062835;28;20191;-61
2021/01/10 02:59:34;;;;;;;;;;;;;;;;;;5061872;28;20036;-59
2021/01/10 03:02:02;;;;;;;9.05;3.58;;;;;;;;;;5115025;22;19937;-59
2021/01/10 03:04:29;;;;;;;12.00;4.37;;;;;;;;;;5038916;28;20067;-59
2021/01/10 03:06:55;;;;;;;12.63;4.43;;;;;;;;;;5035356;28;20128;-60
2021/01/10 03:09:22;;;;;;;11.55;4.45;;;;;;;;;;5042608;28;20033;-59
2021/01/10 03:11:52;;;;;;;15.32;4.78;;;;;;;;;;5034283;28;20052;-59
2021/01/10 03:14:18;;;;;;;10.45;4.50;;;;;;;;;;5022221;28;20050;-59
2021/01/10 03:16:44;;;;;;;11.57;4.40;;;;;;;;;;5031244;28;20049;-60
2021/01/10 03:19:11;;;;;;;11.13;4.45;;;;;;;;;;5041876;28;20037;-59
2021/01/10 03:21:38;;;;;;;11.00;4.40;;;;;;;;;;5040117;28;20041;-59
2021/01/10 03:24:05;;;;;;;15.30;4.40;;;;;;;;;;5037457;28;20131;-59
2021/01/10 03:26:31;;;;;;;10.27;3.88;;;;;;;;;;5042440;28;20029;-59
2021/01/10 03:28:57;;;;;;;11.95;4.53;;;;;;;;;;5036937;28;20049;-60
2021/01/10 03:31:23;;;;;;;12.73;4.28;;;;;;;;;;5042749;28;20048;-60
2021/01/10 03:33:49;;;;;;;9.30;4.22;;;;;;;;;;5036503;28;20091;-60
2021/01/10 03:36:16;;;;;;;13.73;4.57;;;;;;;;;;5041060;28;20049;-58
2021/01/10 03:38:42;;;;;;;11.40;4.30;;;;;;;;;;5038902;28;20038;-59
2021/01/10 03:41:09;;;;;;;14.80;4.75;;;;;;;;;;5040755;28;20045;-59
2021/01/10 03:43:35;;;;;;;8.60;3.67;;;;;;;;;;5039848;28;20103;-59
2021/01/10 03:46:01;;;;;;;7.97;3.97;;;;;;;;;;5038865;28;20061;-59
2021/01/10 03:48:27;;;;;;;17.30;4.30;;;;;;;;;;5041065;28;20052;-58
2021/01/10 03:50:53;;;;;;;13.88;4.53;;;;;;;;;;5055752;28;20056;-59
2021/01/10 03:53:20;;;;;;;11.07;4.78;;;;;;;;;;5041360;28;20025;-60
2021/01/10 03:55:46;;;;;;;10.70;4.07;;;;;;;;;;5037500;28;20064;-60
2021/01/10 03:58:12;;;;;;;11.10;4.43;;;;;;;;;;5040912;28;20123;-59
2021/01/10 04:00:38;;;;;;;9.93;4.15;;;;;;;;;;5041416;28;20096;-59
2021/01/10 04:03:05;;;;;;;14.48;4.20;;;;;;;;;;5036606;28;20060;-60
2021/01/10 04:05:31;;;;;;;12.32;4.68;;;;;;;;;;5042443;28;20041;-58
2021/01/10 04:07:57;;;;;;;15.98;4.93;;;;;;;;;;5037043;28;20168;-59
2021/01/10 04:10:24;;;;;;;14.02;4.53;;;;;;;;;;5041351;28;20045;-59
2021/01/10 04:12:50;;;;;;;11.90;4.65;;;;;;;;;;5035726;28;20048;-60
2021/01/10 04:15:16;;;;;;;10.82;4.40;;;;;;;;;;5057290;28;20049;-59
2021/01/10 04:17:42;;;;;;;10.52;4.45;;;;;;;;;;5039601;28;20048;-60
2021/01/10 04:20:09;;;;;;;12.50;5.20;;;;;;;;;;5037361;28;20037;-59
2021/01/10 04:22:35;;;;;;;11.10;4.38;;;;;;;;;;5042561;28;20026;-58
2021/01/10 04:25:01;;;;;;;10.45;4.47;;;;;;;;;;5038691;28;20044;-60
2021/01/10 04:27:28;;;;;;;14.30;5.10;;;;;;;;;;5041361;28;20045;-58
2021/01/10 04:29:54;;;;;;;10.77;4.60;;;;;;;;;;5037402;28;20041;-59
2021/01/10 04:32:20;;;;;;;14.20;5.25;;;;;;;;;;5039664;28;20052;-59
2021/01/10 04:34:46;;;;;;;11.32;3.70;;;;;;;;;;5037658;28;20071;-57
2021/01/10 04:37:12;;;;;;;14.13;4.57;;;;;;;;;;5040832;28;20050;-59
2021/01/10 04:39:38;;;;;;;11.80;4.20;;;;;;;;;;5036309;28;20152;-59
2021/01/10 04:42:05;;;;;;;10.43;4.25;;;;;;;;;;5040962;28;20041;-59
2021/01/10 04:44:32;;;;;;;11.57;4.50;;;;;;;;;;5035799;28;20049;-58
2021/01/10 04:46:58;;;;;;;9.32;4.10;;;;;;;;;;5039612;28;20041;-59
2021/01/10 04:49:24;;;;;;;15.05;4.38;;;;;;;;;;5037498;28;20053;-58
2021/01/10 04:51:51;;;;;;;12.68;4.55;;;;;;;;;;5039510;28;20041;-59
2021/01/10 04:54:17;;;;;;;11.57;4.18;;;;;;;;;;5037502;28;20057;-59
2021/01/10 04:56:44;;;;;;;10.10;3.95;;;;;;;;;;5039315;28;20051;-58
2021/01/10 04:59:10;;;;;;;12.18;4.22;;;;;;;;;;5040036;28;20051;-59
2021/01/10 05:01:42;;;;;;;11.23;4.22;;;;;;;;;;5043911;28;20056;-59
2021/01/10 05:04:08;;;;;;;13.57;5.00;;;;;;;;;;5039599;28;20053;-59
2021/01/10 05:06:35;;;;;;;9.07;4.10;;;;;;;;;;5037427;28;20049;-59
2021/01/10 05:09:01;;;;;;;10.02;4.32;;;;;;;;;;5041556;28;20065;-59
2021/01/10 05:11:28;;;;;;;12.32;4.28;;;;;;;;;;5036700;28;20033;-59
2021/01/10 05:13:54;;;;;;;10.32;4.10;;;;;;;;;;5042452;28;20030;-59
2021/01/10 05:16:20;;;;;;;9.93;4.43;;;;;;;;;;5041888;28;20049;-59
2021/01/10 05:18:51;;;;;;;10.13;4.18;;;;;;;;;;5044435;28;20040;-59
2021/01/10 05:21:19;;;;;;;11.88;4.45;;;;;;;;;;5039941;28;20042;-59
2021/01/10 05:23:46;;;;;;;16.23;4.28;;;;;;;;;;5043622;28;20077;-60
2021/01/10 05:26:12;;;;;;;11.35;4.60;;;;;;;;;;5040717;28;20178;-59
2021/01/10 05:28:38;;;;;;;17.08;5.20;;;;;;;;;;5043506;28;20037;-59
2021/01/10 05:31:08;;;;;;;10.98;3.92;;;;;;;;;;5040729;28;20033;-59
2021/01/10 05:33:46;;;;;;;9.57;4.13;;;;;;;;;;5044445;28;20041;-59
2021/01/10 05:36:23;;;;;;;11.33;3.93;;;;;;;;;;5042064;28;20154;-59
2021/01/10 05:38:49;;;;;;;9.88;4.63;;;;;;;;;;5044612;28;20363;-60
2021/01/10 05:41:15;;;;;;;10.68;4.28;;;;;;;;;;5042128;28;20041;-60
2021/01/10 05:43:56;;;;;;;10.98;4.22;;;;;;;;;;5044919;28;20045;-60
2021/01/10 05:46:22;;;;;;;11.60;4.85;;;;;;;;;;5042485;28;20108;-60
2021/01/10 05:48:48;;;;;;;7.43;3.85;;;;;;;;;;5045701;28;20033;-59
2021/01/10 05:51:16;;;;;;;12.48;4.43;;;;;;;;;;5042817;28;20029;-59
2021/01/10 05:53:42;;;;;;;9.52;4.20;;;;;;;;;;5038592;28;20045;-59
2021/01/10 05:56:08;;;;;;;11.18;4.43;;;;;;;;;;5044146;28;20033;-59
2021/01/10 05:58:34;;;;;;;11.70;3.92;;;;;;;;;;5037883;28;20044;-60
2021/01/10 06:01:00;;;;;;;11.48;4.50;;;;;;;;;;5043777;28;20033;-59
2021/01/10 06:03:31;;;;;;;15.15;4.63;;;;;;;;;;5039089;28;20041;-62
2021/01/10 06:05:58;;;;;;;8.88;4.35;;;;;;;;;;5041410;28;20045;-62
2021/01/10 06:08:29;;;;;;;12.75;4.38;;;;;;;;;;5039337;28;20114;-62
2021/01/10 06:10:55;;;;;;;12.57;4.70;;;;;;;;;;5041121;28;20045;-62
2021/01/10 06:13:21;;;;;;;12.50;4.57;;;;;;;;;;5039120;28;20116;-62
2021/01/10 06:15:48;;;;;;;13.45;3.92;;;;;;;;;;5042205;28;20044;-63
2021/01/10 06:18:15;;;;;;;10.55;4.13;;;;;;;;;;5038726;28;20033;-61
2021/01/10 06:20:42;;;;;;;10.63;4.38;;;;;;;;;;5042467;28;20053;-62
2021/01/10 06:23:08;;;;;;;11.88;4.13;;;;;;;;;;5039192;28;20094;-63
2021/01/10 06:25:37;;;;;;;11.13;4.20;;;;;;;;;;5042301;28;20052;-62
2021/01/10 06:28:03;;;;;;;;;;;;;;;;;;5040075;28;20041;-63
2021/01/10 06:30:30;;;;;;;7.35;3.30;;;;;;;;;;5057312;28;19999;-62
2021/01/10 06:32:59;;;;;;;9.82;3.90;;;;;;;;;;5043247;28;20053;-61
2021/01/10 06:35:24;;;;;;;;;;;;;;;;;;5042055;28;20034;-62
2021/01/10 06:37:52;;;;;;;8.45;3.65;;;;;;;;;;5040937;28;19987;-62
2021/01/10 06:40:19;;;;;;;10.38;3.90;;;;;;;;;;5017565;28;20041;-62
2021/01/10 06:42:49;;;;;;;11.18;4.05;;;;;;;;;;5010738;28;20042;-62
2021/01/10 06:45:17;;;;;;;10.35;4.15;;;;;;;;;;4998449;28;20046;-61
2021/01/10 06:47:43;;;;;;;10.57;4.18;;;;;;;;;;5004083;28;20127;-62
2021/01/10 06:50:09;;;;;;;13.27;4.30;;;;;;;;;;4998913;28;20042;-61
2021/01/10 06:52:36;;;;;;;10.07;4.47;;;;;;;;;;5002686;28;20057;-59
2021/01/10 06:55:04;;;;;;;12.38;4.38;;;;;;;;;;5010068;28;20057;-60
2021/01/10 06:57:31;;;;;;;9.88;4.05;;;;;;;;;;5023882;28;20062;-59
2021/01/10 07:00:02;;;;;;;12.63;4.10;;;;;;;;;;5012411;28;20072;-60
2021/01/10 07:02:30;;;;;;;11.25;4.18;;;;;;;;;;5003059;28;20049;-61
2021/01/10 07:04:57;;;;;;;11.60;4.30;;;;;;;;;;5000262;28;20250;-60
2021/01/10 07:07:40;;;;;;;9.52;4.07;;;;;;;;;;5003787;28;20066;-60
2021/01/10 07:10:07;;;;;;;11.20;4.10;;;;;;;;;;5005469;28;20034;-60
2021/01/10 07:12:34;;;;;;;10.10;4.38;;;;;;;;;;5024427;28;20045;-59
2021/01/10 07:15:18;;;;;;;11.73;4.32;;;;;;;;;;5016665;28;20044;-60
2021/01/10 07:17:59;;;;;;;12.45;4.78;;;;;;;;;;5002670;28;20121;-60
2021/01/10 07:20:31;;;;;;;10.27;4.18;;;;;;;;;;5002227;28;20038;-60
2021/01/10 07:23:12;;;;;;;10.27;3.92;;;;;;;;;;5021394;28;20041;-60
2021/01/10 07:25:40;;;;;;;7.88;3.92;;;;;;;;;;5014089;28;20169;-60
2021/01/10 07:28:25;;;;;;;10.50;3.83;;;;;;;;;;5001554;28;20078;-60
2021/01/10 07:31:04;;;;;;;13.18;3.85;;;;;;;;;;5000241;28;20046;-60
2021/01/10 07:33:31;;;;;;;8.63;3.92;;;;;;;;;;5020111;28;20041;-60
2021/01/10 07:35:59;;;;;;;11.23;4.40;;;;;;;;;;5020758;28;20050;-60
2021/01/10 07:38:25;;;;;;;;;;;;;;;;;;5040278;28;20041;-60
2021/01/10 07:40:52;;;;;;;7.93;3.13;;;;;;;;;;5053746;28;19917;-60
2021/01/10 07:43:18;;;;;;;11.38;3.47;;;;;;;;;;5040146;28;20056;-60
2021/01/10 07:45:44;;;;;;;11.63;3.85;;;;;;;;;;5041208;28;20041;-61
2021/01/10 07:48:25;;;;;;;8.70;3.75;;;;;;;;;;5038063;28;20071;-60
2021/01/10 07:51:11;;;;;;;11.95;4.00;;;;;;;;;;5039932;28;20045;-61
2021/01/10 07:53:47;;;;;;;10.63;3.60;;;;;;;;;;5020773;28;20127;-59
2021/01/10 07:56:16;;;;;;;10.50;3.40;;;;;;;;;;5020905;28;20034;-60
2021/01/10 07:58:42;;;;;;;9.02;3.88;;;;;;;;;;5039897;28;20123;-60
2021/01/10 08:01:08;;;;;;;8.32;3.53;;;;;;;;;;5040472;28;20033;-60
2021/01/10 08:03:34;;;;;;;12.32;4.00;;;;;;;;;;5039016;28;20053;-61
2021/01/10 08:06:05;;;;;;;11.80;4.18;;;;;;;;;;5041522;28;20077;-60
2021/01/10 08:08:38;;;;;;;8.40;3.70;;;;;;;;;;5036870;28;20045;-61
2021/01/10 08:11:04;;;;;;;11.48;4.32;;;;;;;;;;5037722;28;20115;-61
2021/01/10 08:13:30;;;;;;;11.82;4.38;;;;;;;;;;5031766;28;20057;-61
2021/01/10 08:15:57;;;;;;;11.23;3.90;;;;;;;;;;5041856;28;20037;-60
2021/01/10 08:18:33;;;;;;;13.88;4.25;;;;;;;;;;5036487;28;20041;-61
2021/01/10 08:20:59;;;;;;;12.05;4.85;;;;;;;;;;5040855;28;20069;-61
2021/01/10 08:23:27;;;;;;;14.15;5.25;;;;;;;;;;5037645;28;20037;-60
2021/01/10 08:26:01;;;;;;;8.93;4.15;;;;;;;;;;5041825;28;20059;-61
2021/01/10 08:28:27;;;;;;;17.00;5.60;;;;;;;;;;5037692;28;20052;-60
2021/01/10 08:31:00;;;;;;;12.98;4.05;;;;;;;;;;5042936;28;20073;-60
2021/01/10 08:33:26;;;;;;;12.40;4.90;;;;;;;;;;5040457;28;20049;-59
2021/01/10 08:35:52;;;;;;;10.52;4.72;;;;;;;;;;5042340;28;20052;-60
2021/01/10 08:38:18;;;;;;;10.80;4.95;;;;;;;;;;5036954;28;20101;-59
2021/01/10 08:40:45;;;;;;;11.35;4.75;;;;;;;;;;5040628;28;20041;-60
2021/01/10 08:43:11;;;;;;;10.07;4.13;;;;;;;;;;5038857;28;20041;-60
2021/01/10 08:45:37;;;;;;;13.77;4.40;;;;;;;;;;5040780;28;20052;-60
2021/01/10 08:48:04;;;;;;;10.25;4.95;;;;;;;;;;5039662;28;20056;-60
2021/01/10 08:50:39;;;;;;;11.77;4.72;;;;;;;;;;5042006;28;20053;-60
2021/01/10 08:53:07;;;;;;;11.50;4.38;;;;;;;;;;5042548;28;20057;-60
2021/01/10 08:55:33;;;;;;;10.98;4.28;;;;;;;;;;5041832;28;20041;-60
2021/01/10 08:58:01;;;;;;;12.77;5.03;;;;;;;;;;5043071;28;20041;-60
2021/01/10 09:00:27;;;;;;;11.63;4.82;;;;;;;;;;5039851;28;20037;-59
2021/01/10 09:02:53;;;;;;;11.75;4.78;;;;;;;;;;5042129;28;20063;-59
2021/01/10 09:05:26;;;;;;;11.85;4.57;;;;;;;;;;5039308;28;20041;-59
2021/01/10 09:07:53;;;;;;;9.25;4.43;;;;;;;;;;5042027;28;20041;-59
2021/01/10 09:10:21;;;;;;;15.70;5.00;;;;;;;;;;5038290;28;20167;-61
2021/01/10 09:12:52;;;;;;;11.77;5.18;;;;;;;;;;5043749;28;20146;-60
2021/01/10 09:15:20;;;;;;;10.43;4.68;;;;;;;;;;5039201;28;20069;-59
2021/01/10 09:17:48;;;;;;;11.35;5.07;;;;;;;;;;5042134;28;20049;-60
2021/01/10 09:20:15;;;;;;;14.52;5.13;;;;;;;;;;5040736;28;20087;-61
2021/01/10 09:22:42;;;;;;;10.63;4.32;;;;;;;;;;5043516;28;20056;-60
2021/01/10 09:25:12;;;;;;;11.85;5.00;;;;;;;;;;5040878;28;20037;-61
2021/01/10 09:27:38;;;;;;;13.35;4.57;;;;;;;;;;5043361;28;20068;-61
2021/01/10 09:30:05;;;;;;;11.57;4.93;;;;;;;;;;5039773;28;20045;-61
2021/01/10 09:32:32;;;;;;;12.57;5.20;;;;;;;;;;5040951;28;20112;-59
2021/01/10 09:34:59;;;;;;;16.38;4.70;;;;;;;;;;5040184;28;20113;-60
2021/01/10 09:37:28;;;;;;;13.40;5.65;;;;;;;;;;5038533;28;20063;-60
2021/01/10 09:40:05;;;;;;;12.93;5.30;;;;;;;;;;5056868;28;20052;-60
2021/01/10 09:42:42;;;;;;;18.00;6.05;;;;;;;;;;5055090;28;20048;-60
2021/01/10 09:45:08;;;;;;;12.82;5.43;;;;;;;;;;5042746;28;20045;-61
2021/01/10 09:47:36;;;;;;;15.68;6.30;;;;;;;;;;5040486;28;20065;-59
2021/01/10 09:50:08;;;;;;;13.35;6.22;;;;;;;;;;5043045;28;20041;-60
2021/01/10 09:52:45;;;;;;;13.93;5.85;;;;;;;;;;5039505;28;20081;-61
2021/01/10 09:55:11;;;;;;;10.48;5.05;;;;;;;;;;5043679;28;20038;-59
2021/01/10 09:57:39;;;;;;;11.45;5.40;;;;;;;;;;5040307;28;20056;-60
2021/01/10 10:00:06;;;;;;;11.18;5.22;;;;;;;;;;5041421;28;20111;-60
2021/01/10 10:02:34;;;;;;;12.05;5.97;;;;;;;;;;5037717;28;20052;-60
2021/01/10 10:05:09;;;;;;;10.23;5.03;;;;;;;;;;5041675;28;20053;-61
2021/01/10 10:07:35;;;;;;;11.80;5.43;;;;;;;;;;5037623;28;20069;-60
2021/01/10 10:10:02;;;;;;;12.02;5.63;;;;;;;;;;5042103;28;20040;-60
2021/01/10 10:12:28;;;;;;;12.43;5.60;;;;;;;;;;5037515;28;20063;-61
2021/01/10 10:14:56;;;;;;;13.43;4.82;;;;;;;;;;5042098;28;20095;-60
2021/01/10 10:17:22;;;;;;;11.38;5.30;;;;;;;;;;5038435;28;20068;-60
2021/01/10 10:19:48;;;;;;;11.95;5.30;;;;;;;;;;5040260;28;20040;-60
2021/01/10 10:22:26;;;;;;;10.85;5.53;;;;;;;;;;5038809;28;20057;-60
2021/01/10 10:24:53;;;;;;;13.38;5.85;;;;;;;;;;5041463;28;20041;-61
2021/01/10 10:27:19;;;;;;;13.82;5.38;;;;;;;;;;5038747;28;20037;-61
2021/01/10 10:29:45;;;;;;;12.88;5.13;;;;;;;;;;5041985;28;20057;-60
2021/01/10 10:32:15;;;;;;;16.35;6.28;;;;;;;;;;5040989;28;20041;-61
2021/01/10 10:34:41;;;;;;;18.23;7.05;;;;;;;;;;5037988;28;20048;-60
2021/01/10 10:37:08;;;;;;;15.15;7.30;;;;;;;;;;5040622;28;20056;-60
2021/01/10 10:39:35;;;;;;;13.82;6.07;;;;;;;;;;5051127;28;20102;-60
2021/01/10 10:42:02;;;;;;;15.30;5.75;;;;;;;;;;5041058;28;20056;-60
2021/01/10 10:44:28;;;;;;;11.80;5.05;;;;;;;;;;5037420;28;20060;-60
2021/01/10 10:46:54;;;;;;;16.10;4.60;;;;;;;;;;5040729;28;20033;-61
2021/01/10 10:49:20;;;;;;;8.18;4.00;;;;;;;;;;5037956;28;20041;-60
2021/01/10 10:51:46;;;;;;;15.57;5.78;;;;;;;;;;5042580;28;20053;-60
2021/01/10 10:54:14;;;;;;;12.73;4.97;;;;;;;;;;5037222;28;20044;-61
2021/01/10 10:56:41;;;;;;;15.27;5.22;;;;;;;;;;5040868;28;20045;-60
2021/01/10 10:59:07;;;;;;;10.45;5.40;;;;;;;;;;5038107;28;20037;-61
2021/01/10 11:01:37;;;;;;;13.73;5.85;;;;;;;;;;5040937;28;20052;-61
2021/01/10 11:04:04;;;;;;;12.32;5.32;;;;;;;;;;5038160;28;20064;-61
2021/01/10 11:06:30;;;;;;;11.60;5.38;;;;;;;;;;5042656;28;20037;-60
2021/01/10 11:08:56;;;;;;;12.05;5.30;;;;;;;;;;5037751;28;20040;-60
2021/01/10 11:11:23;;;;;;;10.55;5.32;;;;;;;;;;5042251;28;20025;-60
2021/01/10 11:13:50;;;;;;;17.38;4.82;;;;;;;;;;5048996;28;20033;-61
2021/01/10 11:16:18;;;;;;;11.63;5.30;;;;;;;;;;5040161;28;20051;-60
2021/01/10 11:18:44;;;;;;;13.82;4.88;;;;;;;;;;5044353;28;20030;-60
2021/01/10 11:21:10;;;;;;;15.02;4.75;;;;;;;;;;5038525;28;20122;-60
2021/01/10 11:23:36;;;;;;;11.10;4.95;;;;;;;;;;5042810;28;20041;-61
2021/01/10 11:26:04;;;;;;;10.73;4.72;;;;;;;;;;5039315;28;20044;-60
2021/01/10 11:28:30;;;;;;;9.48;4.53;;;;;;;;;;5042606;28;20053;-61
2021/01/10 11:30:57;;;;;;;16.60;5.00;;;;;;;;;;5038571;28;20041;-60
2021/01/10 11:33:23;;;;;;;11.10;4.72;;;;;;;;;;5040937;28;20044;-61
2021/01/10 11:35:49;;;;;;;11.57;5.38;;;;;;;;;;5037697;28;20040;-60
2021/01/10 11:38:15;;;;;;;16.67;5.95;;;;;;;;;;5041522;28;20086;-60
2021/01/10 11:40:41;;;;;;;10.88;5.10;;;;;;;;;;5038535;28;20057;-60
2021/01/10 11:43:09;;;;;;;9.23;4.28;;;;;;;;;;5041082;28;20033;-61
2021/01/10 11:45:35;;;;;;;9.85;4.20;;;;;;;;;;5037914;28;20041;-60
2021/01/10 11:48:02;;;;;;;11.65;4.15;;;;;;;;;;5041669;28;20049;-60
2021/01/10 11:50:28;;;;;;;13.00;4.68;;;;;;;;;;5037787;28;20149;-61
2021/01/10 11:52:54;;;;;;;11.70;3.80;;;;;;;;;;5041338;28;20041;-60
2021/01/10 11:55:20;;;;;;;11.80;4.38;;;;;;;;;;5041340;28;20034;-60
2021/01/10 11:57:46;;;;;;;14.68;4.55;;;;;;;;;;5036971;28;20049;-60
2021/01/10 12:00:13;;;;;;;11.02;4.82;;;;;;;;;;5041724;28;20048;-61
2021/01/10 12:02:40;;;;;;;9.88;4.50;;;;;;;;;;5020627;28;20114;-60
2021/01/10 12:05:08;;;;;;;11.25;4.45;;;;;;;;;;5038755;28;20037;-60
2021/01/10 12:07:34;;;;;;;7.22;3.67;;;;;;;;;;5038135;28;20049;-60
2021/01/10 12:10:00;;;;;;;11.82;4.53;;;;;;;;;;5041666;28;20102;-60
2021/01/10 12:12:26;;;;;;;9.68;4.30;;;;;;;;;;5040549;28;20052;-60
2021/01/10 12:14:52;;;;;;;8.15;3.20;;;;;;;;;;5055131;28;20123;-60
2021/01/10 12:17:18;;;;;;;6.20;3.05;;;;;;;;;;5036502;28;20387;-60
2021/01/10 12:19:44;;;;;;;9.10;3.47;;;;;;;;;;5040992;28;20049;-60
2021/01/10 12:22:11;;;;;;;8.05;3.22;;;;;;;;;;5037815;28;20052;-60
2021/01/10 12:24:37;;;;;;;7.25;3.38;;;;;;;;;;5040634;28;20070;-60
2021/01/10 12:27:03;;;;;;;8.40;3.63;;;;;;;;;;5038139;28;20041;-60
2021/01/10 12:29:29;;;;;;;6.95;2.75;;;;;;;;;;5040897;28;20033;-61
2021/01/10 12:31:59;;;;;;;6.28;3.05;;;;;;;;;;5041433;28;20056;-60
2021/01/10 12:34:25;;;;;;;6.03;2.63;;;;;;;;;;5029568;28;20034;-60
2021/01/10 12:36:51;;;;;;;7.07;2.50;;;;;;;;;;5021255;28;20049;-60
2021/01/10 12:39:18;;;;;;;10.15;3.40;;;;;;;;;;5015778;28;20042;-60
2021/01/10 12:41:46;;;;;;;6.32;2.92;;;;;;;;;;5019893;28;20057;-60
2021/01/10 12:44:12;;;;;;;8.68;3.22;;;;;;;;;;5015046;28;20072;-61
2021/01/10 12:46:38;;;;;;;8.88;3.28;;;;;;;;;;5017847;28;20058;-61
2021/01/10 12:49:04;;;;;;;9.57;3.38;;;;;;;;;;5017729;28;20042;-61
2021/01/10 12:51:36;;;;;;;16.73;5.35;;;;;;;;;;5022090;28;20049;-61
2021/01/10 12:54:02;;;;;;;14.95;5.93;;;;;;;;;;5015972;28;20046;-61
2021/01/10 12:56:29;;;;;;;11.20;4.00;;;;;;;;;;5020925;28;20038;-60
2021/01/10 12:58:55;;;;;;;9.25;3.60;;;;;;;;;;5017299;28;20044;-60
2021/01/10 13:01:21;;;;;;;12.27;3.28;;;;;;;;;;5013701;28;20045;-60
2021/01/10 13:03:47;;;;;;;8.77;3.58;;;;;;;;;;5011518;28;20045;-61
2021/01/10 13:06:13;;;;;;;6.57;3.08;;;;;;;;;;4999837;28;20042;-60
2021/01/10 13:08:39;;;;;;;12.23;3.45;;;;;;;;;;4996812;28;20042;-61
2021/01/10 13:11:05;;;;;;;7.30;3.35;;;;;;;;;;5000818;28;20188;-60
2021/01/10 13:13:31;;;;;;;9.13;3.28;;;;;;;;;;4999233;28;20057;-60
2021/01/10 13:15:57;;;;;;;6.93;3.15;;;;;;;;;;5010493;28;20049;-60
2021/01/10 13:18:23;;;;;;;11.35;3.42;;;;;;;;;;5012983;28;20117;-61
2021/01/10 13:20:49;;;;;;;9.93;3.78;;;;;;;;;;5010198;28;20038;-61
2021/01/10 13:23:16;;;;;;;11.18;3.42;;;;;;;;;;5015573;28;20045;-61
2021/01/10 13:25:42;;;;;;;15.32;4.28;;;;;;;;;;5016712;28;20034;-61
2021/01/10 13:28:08;;;;;;;11.45;3.42;;;;;;;;;;5022615;28;20025;-60
2021/01/10 13:30:35;;;;;;;9.30;3.42;;;;;;;;;;5014162;28;20077;-60
2021/01/10 13:33:01;;;;;;;5.63;2.78;;;;;;;;;;5017086;28;20054;-60
2021/01/10 13:35:27;;;;;;;9.75;2.95;;;;;;;;;;5017353;28;20041;-61
2021/01/10 13:37:53;;;;;;;9.23;3.70;;;;;;;;;;5019666;28;20045;-60
2021/01/10 13:40:19;;;;;;;7.95;3.30;;;;;;;;;;5016301;28;20034;-61
2021/01/10 13:42:45;;;;;;;5.88;2.53;;;;;;;;;;5038376;28;20122;-60
2021/01/10 13:45:12;;;;;;;10.52;3.13;;;;;;;;;;5037959;28;20053;-60
2021/01/10 13:47:38;;;;;;;8.07;2.95;;;;;;;;;;5042599;28;20122;-60
2021/01/10 13:50:05;;;;;;;10.60;3.95;;;;;;;;;;5038958;28;20107;-60
2021/01/10 13:52:33;;;;;;;8.90;3.45;;;;;;;;;;5044681;28;20037;-60
2021/01/10 13:54:59;;;;;;;8.55;3.42;;;;;;;;;;5042034;28;20044;-61
2021/01/10 13:57:25;;;;;;;6.88;3.05;;;;;;;;;;5039987;28;20103;-61
2021/01/10 13:59:51;;;;;;;9.07;3.33;;;;;;;;;;5025857;28;20048;-60
2021/01/10 14:02:17;;;;;;;8.10;3.22;;;;;;;;;;5018602;28;20081;-60
2021/01/10 14:04:44;;;;;;;10.02;3.53;;;;;;;;;;5022268;28;20108;-60
2021/01/10 14:07:10;;;;;;;7.30;3.08;;;;;;;;;;5018687;28;20081;-60
2021/01/10 14:09:36;;;;;;;7.72;3.20;;;;;;;;;;5020018;28;20050;-60
2021/01/10 14:12:03;;;;;;;12.13;4.78;;;;;;;;;;5025491;28;20036;-60
2021/01/10 14:14:29;;;;;;;22.75;7.13;;;;;;;;;;5034185;28;20077;-63
2021/01/10 14:16:55;;;;;;;9.43;3.85;;;;;;;;;;5037585;28;20148;-60
2021/01/10 14:19:22;;;;;;;9.43;3.17;;;;;;;;;;5042701;28;20033;-60
2021/01/10 14:21:49;;;;;;;7.75;3.13;;;;;;;;;;5017829;28;20045;-61
2021/01/10 14:24:17;;;;;;;8.35;3.40;;;;;;;;;;5022153;28;20058;-60
2021/01/10 14:26:45;;;;;;;7.43;2.80;;;;;;;;;;5018602;28;20049;-60
2021/01/10 14:29:12;;;;;;;9.10;3.63;;;;;;;;;;5035487;28;20038;-60
2021/01/10 14:31:41;;;;;;;7.97;3.75;;;;;;;;;;5038457;28;20052;-60
2021/01/10 14:34:07;;;;;;;7.72;3.17;;;;;;;;;;5055540;28;20052;-61